createdAt,value
2019-02-25T00:00:58.501Z,103080.52
2019-02-25T00:03:28.379Z,103081.52
2019-02-25T00:05:57.924Z,103071.33
2019-02-25T00:08:27.660Z,103075.11
2019-02-25T00:10:57.375Z,103078.70
2019-02-25T00:13:26.868Z,103078.48
2019-02-25T00:15:56.313Z,103082.52
2019-02-25T00:18:25.801Z,103074.89
2019-02-25T00:20:55.458Z,103079.18
2019-02-25T00:23:24.899Z,103073.89
2019-02-25T00:25:54.499Z,103069.78
2019-02-25T00:28:24.041Z,103071.38
2019-02-25T00:30:53.672Z,103066.31
2019-02-25T00:33:23.240Z,103062.50
2019-02-25T00:35:52.965Z,103052.02
2019-02-25T00:38:22.430Z,103048.42
2019-02-25T00:40:51.836Z,103042.83
2019-02-25T00:43:21.277Z,103051.53
2019-02-25T00:45:50.878Z,103044.82
2019-02-25T00:48:20.629Z,103043.55
2019-02-25T00:50:50.424Z,103055.73
2019-02-25T00:53:19.855Z,103051.35
2019-02-25T00:55:49.445Z,103048.75
2019-02-25T00:58:19.261Z,103048.56
2019-02-25T01:00:48.889Z,103047.44
2019-02-25T01:03:18.455Z,103054.25
2019-02-25T01:05:48.266Z,103048.75
2019-02-25T01:08:17.973Z,103039.86
2019-02-25T01:10:47.612Z,103044.88
2019-02-25T01:13:17.296Z,103039.95
2019-02-25T01:15:47.050Z,103044.36
2019-02-25T01:18:16.616Z,103044.27
2019-02-25T01:20:46.414Z,103048.64
2019-02-25T01:23:15.906Z,103036.77
2019-02-25T01:25:45.633Z,103035.36
2019-02-25T01:28:15.295Z,103041.15
2019-02-25T01:30:45.568Z,103044.55
2019-02-25T01:33:15.373Z,103044.85
2019-02-25T01:35:44.927Z,103043.06
2019-02-25T01:38:15.688Z,103040.16
2019-02-25T01:40:45.769Z,103047.25
2019-02-25T01:43:15.338Z,103052.03
2019-02-25T01:45:44.780Z,103055.55
2019-02-25T01:48:14.506Z,103045.06
2019-02-25T01:50:44.201Z,103041.64
2019-02-25T01:53:13.625Z,103033.56
2019-02-25T01:55:43.455Z,103036.77
2019-02-25T01:58:13.303Z,103034.17
2019-02-25T02:00:42.821Z,103034.38
2019-02-25T02:03:12.306Z,103032.48
2019-02-25T02:05:42.249Z,103031.17
2019-02-25T02:08:11.730Z,103034.86
2019-02-25T02:10:41.527Z,103029.00
2019-02-25T02:13:14.191Z,103034.09
2019-02-25T02:15:42.478Z,103028.28
2019-02-25T02:18:12.271Z,103027.27
2019-02-25T02:20:42.245Z,103023.48
2019-02-25T02:23:11.936Z,103025.56
2019-02-25T02:25:41.456Z,103026.27
2019-02-25T02:28:11.126Z,103026.87
2019-02-25T02:30:40.688Z,103033.27
2019-02-25T02:33:10.225Z,103039.25
2019-02-25T02:35:39.802Z,103038.15
2019-02-25T02:38:09.492Z,103041.84
2019-02-25T02:40:39.111Z,103030.64
2019-02-25T02:43:08.554Z,103036.23
2019-02-25T02:45:44.173Z,103042.20
2019-02-25T02:48:20.277Z,103046.90
2019-02-25T02:50:49.461Z,103036.05
2019-02-25T02:53:18.835Z,103030.47
2019-02-25T02:55:48.447Z,103036.98
2019-02-25T02:58:18.084Z,103041.77
2019-02-25T03:00:47.507Z,103045.45
2019-02-25T03:03:16.930Z,103047.17
2019-02-25T03:05:46.667Z,103035.97
2019-02-25T03:08:16.194Z,103028.30
2019-02-25T03:10:45.993Z,103028.08
2019-02-25T03:13:15.606Z,103021.27
2019-02-25T03:15:45.245Z,103020.18
2019-02-25T03:18:14.718Z,103017.88
2019-02-25T03:20:44.311Z,103007.20
2019-02-25T03:23:13.824Z,103003.21
2019-02-25T03:25:43.328Z,103019.59
2019-02-25T03:28:12.934Z,103020.10
2019-02-25T03:30:42.379Z,103023.48
2019-02-25T03:33:12.045Z,103021.89
2019-02-25T03:35:41.852Z,103021.91
2019-02-25T03:38:11.433Z,103016.22
2019-02-25T03:40:41.066Z,103020.23
2019-02-25T03:43:10.584Z,103018.14
2019-02-25T03:45:40.388Z,103008.86
2019-02-25T03:48:10.108Z,103004.80
2019-02-25T03:50:39.622Z,103006.09
2019-02-25T03:53:09.096Z,103004.37
2019-02-25T03:55:38.793Z,103006.48
2019-02-25T03:58:08.595Z,103006.69
2019-02-25T04:00:38.350Z,103011.24
2019-02-25T04:03:07.962Z,103014.53
2019-02-25T04:05:37.362Z,103010.61
2019-02-25T04:08:07.110Z,103021.08
2019-02-25T04:10:37.404Z,103022.25
2019-02-25T04:13:07.015Z,103012.14
2019-02-25T04:15:38.515Z,103011.91
2019-02-25T04:18:08.031Z,103010.42
2019-02-25T04:20:37.984Z,103014.02
2019-02-25T04:23:07.520Z,103024.66
2019-02-25T04:25:36.995Z,103028.55
2019-02-25T04:28:06.617Z,103037.52
2019-02-25T04:30:36.229Z,103040.41
2019-02-25T04:33:06.018Z,103042.68
2019-02-25T04:35:35.533Z,103041.42
2019-02-25T04:38:05.234Z,103048.00
2019-02-25T04:40:34.702Z,103041.94
2019-02-25T04:43:04.318Z,103049.59
2019-02-25T04:45:33.959Z,103045.20
2019-02-25T04:48:03.580Z,103034.58
2019-02-25T04:50:33.076Z,103041.18
2019-02-25T04:53:02.691Z,103052.68
2019-02-25T04:55:32.233Z,103062.42
2019-02-25T04:58:01.644Z,103064.13
2019-02-25T05:00:31.065Z,103059.92
2019-02-25T05:03:00.617Z,103061.46
2019-02-25T05:05:30.091Z,103058.23
2019-02-25T05:07:59.731Z,103061.64
2019-02-25T05:10:29.205Z,103054.06
2019-02-25T05:13:00.317Z,103061.94
2019-02-25T05:15:31.194Z,103049.95
2019-02-25T05:18:00.644Z,103053.33
2019-02-25T05:20:30.223Z,103056.75
2019-02-25T05:22:59.662Z,103060.05
2019-02-25T05:25:29.165Z,103062.53
2019-02-25T05:27:58.727Z,103058.34
2019-02-25T05:30:28.219Z,103053.95
2019-02-25T05:32:57.738Z,103056.64
2019-02-25T05:35:27.730Z,103055.66
2019-02-25T05:37:57.470Z,103059.03
2019-02-25T05:40:27.192Z,103055.06
2019-02-25T05:42:56.664Z,103057.23
2019-02-25T05:45:26.301Z,103050.35
2019-02-25T05:47:55.795Z,103050.23
2019-02-25T05:50:25.258Z,103043.25
2019-02-25T05:52:54.826Z,103049.84
2019-02-25T05:55:24.531Z,103051.14
2019-02-25T05:57:53.965Z,103053.34
2019-02-25T06:00:25.809Z,103059.45
2019-02-25T06:02:55.321Z,103057.64
2019-02-25T06:05:25.188Z,103062.62
2019-02-25T06:07:54.883Z,103058.39
2019-02-25T06:10:24.381Z,103069.09
2019-02-25T06:12:53.830Z,103071.12
2019-02-25T06:15:23.638Z,103067.61
2019-02-25T06:17:53.273Z,103066.87
2019-02-25T06:20:22.824Z,103076.49
2019-02-25T06:22:52.345Z,103077.58
2019-02-25T06:25:21.883Z,103089.14
2019-02-25T06:27:51.597Z,103092.78
2019-02-25T06:30:24.215Z,103088.45
2019-02-25T06:32:54.244Z,103091.96
2019-02-25T06:35:23.723Z,103091.74
2019-02-25T06:37:53.173Z,103093.21
2019-02-25T06:40:22.583Z,103094.25
2019-02-25T06:42:52.239Z,103090.30
2019-02-25T06:45:24.923Z,103093.27
2019-02-25T06:47:54.428Z,103091.75
2019-02-25T06:50:23.898Z,103092.73
2019-02-25T06:52:53.512Z,103077.72
2019-02-25T06:55:23.329Z,103081.50
2019-02-25T06:57:52.845Z,103080.19
2019-02-25T07:00:23.346Z,103087.90
2019-02-25T07:02:52.766Z,103079.84
2019-02-25T07:05:35.884Z,103079.82
2019-02-25T07:08:13.238Z,103081.83
2019-02-25T07:10:53.655Z,103074.75
2019-02-25T07:13:27.268Z,103068.61
2019-02-25T07:16:07.677Z,103065.02
2019-02-25T07:18:44.798Z,103068.30
2019-02-25T07:21:18.785Z,103066.09
2019-02-25T07:23:59.076Z,103063.48
2019-02-25T07:26:39.235Z,103057.06
2019-02-25T07:29:13.400Z,103057.85
2019-02-25T07:31:50.362Z,103068.00
2019-02-25T07:34:24.317Z,103064.66
2019-02-25T07:37:01.396Z,103062.92
2019-02-25T07:39:42.019Z,103047.33
2019-02-25T07:42:13.083Z,103049.15
2019-02-25T07:44:44.278Z,103039.95
2019-02-25T07:47:15.393Z,103041.20
2019-02-25T07:49:55.443Z,103045.95
2019-02-25T07:52:35.495Z,103043.50
2019-02-25T07:55:17.292Z,103048.20
2019-02-25T07:58:04.574Z,103039.20
2019-02-25T08:00:35.821Z,103046.73
2019-02-25T08:03:25.566Z,103049.70
2019-02-25T08:05:56.725Z,103045.75
2019-02-25T08:08:36.761Z,103035.60
2019-02-25T08:11:21.808Z,103029.92
2019-02-25T08:13:52.891Z,103028.27
2019-02-25T08:16:23.938Z,103030.23
2019-02-25T08:18:55.018Z,103033.34
2019-02-25T08:21:35.107Z,103023.13
2019-02-25T08:24:06.366Z,103025.02
2019-02-25T08:26:40.443Z,103019.02
2019-02-25T08:29:23.165Z,103020.36
2019-02-25T08:31:54.323Z,103025.14
2019-02-25T08:34:43.741Z,103023.20
2019-02-25T08:37:27.221Z,103023.20
2019-02-25T08:40:34.579Z,103027.27
2019-02-25T08:43:14.064Z,103023.16
2019-02-25T08:45:47.901Z,103027.34
2019-02-25T08:48:33.982Z,103034.77
2019-02-25T08:51:03.607Z,103038.98
2019-02-25T08:53:33.095Z,103038.98
2019-02-25T08:56:02.567Z,103045.42
2019-02-25T08:58:32.543Z,103049.57
2019-02-25T09:01:02.170Z,103047.16
2019-02-25T09:03:31.717Z,103051.02
2019-02-25T09:06:01.201Z,103060.25
2019-02-25T09:08:30.868Z,103056.98
2019-02-25T09:11:00.702Z,103055.75
2019-02-25T09:13:30.175Z,103059.66
2019-02-25T09:15:59.716Z,103043.57
2019-02-25T09:18:29.353Z,103043.99
2019-02-25T09:20:58.879Z,103038.38
2019-02-25T09:23:28.469Z,103027.45
2019-02-25T09:25:58.073Z,103024.87
2019-02-25T09:28:27.688Z,103033.27
2019-02-25T09:30:57.396Z,103035.78
2019-02-25T09:33:26.874Z,103035.22
2019-02-25T09:35:56.409Z,103042.95
2019-02-25T09:38:26.113Z,103029.58
2019-02-25T09:40:55.760Z,103021.44
2019-02-25T09:43:25.405Z,103017.18
2019-02-25T09:45:55.051Z,103010.98
2019-02-25T09:48:24.645Z,103006.77
2019-02-25T09:50:54.332Z,102994.56
2019-02-25T09:53:24.092Z,102996.78
2019-02-25T09:55:53.677Z,103002.39
2019-02-25T09:58:23.286Z,103002.22
2019-02-25T10:00:52.748Z,102997.48
2019-02-25T10:03:22.215Z,102986.94
2019-02-25T10:05:51.684Z,102991.60
2019-02-25T10:08:21.188Z,102997.97
2019-02-25T10:10:50.653Z,102998.81
2019-02-25T10:13:20.068Z,102995.52
2019-02-25T10:15:50.143Z,102996.80
2019-02-25T10:18:19.849Z,102986.73
2019-02-25T10:20:49.547Z,102991.72
2019-02-25T10:23:19.097Z,102996.14
2019-02-25T10:25:48.646Z,103000.88
2019-02-25T10:28:18.485Z,103002.70
2019-02-25T10:30:52.753Z,103012.79
2019-02-25T10:33:19.125Z,103013.59
2019-02-25T10:35:48.849Z,103021.36
2019-02-25T10:38:19.554Z,103013.09
2019-02-25T10:40:51.508Z,103002.52
2019-02-25T10:43:20.646Z,103018.05
2019-02-25T10:45:50.192Z,103020.84
2019-02-25T10:48:21.515Z,103020.05
2019-02-25T10:50:55.935Z,103007.66
2019-02-25T10:53:22.303Z,103002.53
2019-02-25T10:55:56.063Z,102998.37
2019-02-25T10:58:26.979Z,103005.12
2019-02-25T11:00:56.950Z,102997.31
2019-02-25T11:03:26.561Z,102991.17
2019-02-25T11:05:56.845Z,102982.55
2019-02-25T11:08:27.761Z,102960.16
2019-02-25T11:11:01.958Z,102958.70
2019-02-25T11:13:33.593Z,102956.64
2019-02-25T11:16:03.592Z,102959.47
2019-02-25T11:18:33.276Z,102940.34
2019-02-25T11:21:03.563Z,102948.94
2019-02-25T11:23:34.430Z,102940.33
2019-02-25T11:26:03.933Z,102929.61
2019-02-25T11:28:34.334Z,102917.36
2019-02-25T11:31:04.594Z,102902.98
2019-02-25T11:33:34.427Z,102897.38
2019-02-25T11:36:04.440Z,102895.27
2019-02-25T11:38:37.100Z,102886.23
2019-02-25T11:41:07.102Z,102865.41
2019-02-25T11:43:37.026Z,102861.22
2019-02-25T11:46:06.457Z,102870.44
2019-02-25T11:48:36.056Z,102874.56
2019-02-25T11:51:05.619Z,102879.55
2019-02-25T11:53:35.139Z,102859.91
2019-02-25T11:56:04.857Z,102856.23
2019-02-25T11:58:34.469Z,102855.53
2019-02-25T12:01:04.434Z,102856.42
2019-02-25T12:03:34.139Z,102840.37
2019-02-25T12:06:03.728Z,102836.83
2019-02-25T12:08:33.231Z,102830.11
2019-02-25T12:11:03.056Z,102835.70
2019-02-25T12:13:32.564Z,102850.21
2019-02-25T12:16:02.059Z,102849.41
2019-02-25T12:18:31.816Z,102849.90
2019-02-25T12:21:01.500Z,102844.16
2019-02-25T12:23:31.255Z,102845.64
2019-02-25T12:26:00.892Z,102854.48
2019-02-25T12:28:30.908Z,102853.84
2019-02-25T12:31:00.396Z,102830.27
2019-02-25T12:33:31.294Z,102830.27
2019-02-25T12:36:00.768Z,102833.38
2019-02-25T12:38:30.666Z,102816.86
2019-02-25T12:41:01.138Z,102816.59
2019-02-25T12:43:30.713Z,102820.05
2019-02-25T12:46:01.870Z,102805.16
2019-02-25T12:48:32.390Z,102793.27
2019-02-25T12:51:02.303Z,102783.38
2019-02-25T12:53:32.593Z,102776.98
2019-02-25T12:56:02.155Z,102774.72
2019-02-25T12:58:31.652Z,102772.61
2019-02-25T13:01:01.099Z,102766.63
2019-02-25T13:03:30.515Z,102761.84
2019-02-25T13:06:01.550Z,102762.09
2019-02-25T13:08:31.187Z,102758.75
2019-02-25T13:11:00.719Z,102763.59
2019-02-25T13:13:30.367Z,102765.48
2019-02-25T13:15:59.953Z,102756.59
2019-02-25T13:18:31.044Z,102768.16
2019-02-25T13:21:00.717Z,102758.21
2019-02-25T13:23:30.394Z,102755.15
2019-02-25T13:26:07.263Z,102755.94
2019-02-25T13:28:33.428Z,102746.30
2019-02-25T13:31:03.816Z,102751.99
2019-02-25T13:33:34.165Z,102752.47
2019-02-25T13:36:04.166Z,102745.91
2019-02-25T13:38:33.586Z,102752.42
2019-02-25T13:41:03.213Z,102756.02
2019-02-25T13:43:32.872Z,102746.27
2019-02-25T13:46:02.429Z,102740.25
2019-02-25T13:48:32.060Z,102740.48
2019-02-25T13:51:01.890Z,102736.27
2019-02-25T13:53:31.530Z,102742.02
2019-02-25T13:56:01.129Z,102745.72
2019-02-25T13:58:30.587Z,102744.52
2019-02-25T14:01:00.173Z,102741.66
2019-02-25T14:03:29.596Z,102741.77
2019-02-25T14:05:59.153Z,102730.94
2019-02-25T14:08:28.966Z,102738.67
2019-02-25T14:10:58.834Z,102742.62
2019-02-25T14:13:28.360Z,102749.00
2019-02-25T14:15:57.839Z,102749.27
2019-02-25T14:18:27.427Z,102742.00
2019-02-25T14:20:56.894Z,102757.33
2019-02-25T14:23:26.384Z,102730.57
2019-02-25T14:25:57.257Z,102731.37
2019-02-25T14:28:30.063Z,102720.72
2019-02-25T14:30:58.599Z,102724.87
2019-02-25T14:33:28.230Z,102730.36
2019-02-25T14:35:58.331Z,102744.30
2019-02-25T14:38:29.903Z,102746.41
2019-02-25T14:41:01.878Z,102746.89
2019-02-25T14:43:30.655Z,102750.06
2019-02-25T14:46:01.581Z,102741.31
2019-02-25T14:48:32.832Z,102734.65
2019-02-25T14:51:02.658Z,102727.91
2019-02-25T14:53:32.085Z,102735.27
2019-02-25T14:56:03.881Z,102725.45
2019-02-25T14:58:35.540Z,102733.66
2019-02-25T15:01:05.253Z,102729.90
2019-02-25T15:03:34.841Z,102723.22
2019-02-25T15:06:04.298Z,102717.66
2019-02-25T15:08:34.200Z,102726.67
2019-02-25T15:11:04.895Z,102731.70
2019-02-25T15:13:36.903Z,102734.33
2019-02-25T15:16:06.240Z,102732.22
2019-02-25T15:18:36.000Z,102743.19
2019-02-25T15:21:06.880Z,102744.28
2019-02-25T15:23:37.181Z,102744.66
2019-02-25T15:26:07.063Z,102742.41
2019-02-25T15:28:37.053Z,102745.78
2019-02-25T15:31:08.611Z,102740.42
2019-02-25T15:33:38.612Z,102734.73
2019-02-25T15:36:09.086Z,102728.34
2019-02-25T15:38:39.225Z,102724.98
2019-02-25T15:41:11.276Z,102723.55
2019-02-25T15:43:41.103Z,102724.53
2019-02-25T15:46:12.400Z,102728.26
2019-02-25T15:48:43.404Z,102731.08
2019-02-25T15:51:13.416Z,102730.66
2019-02-25T15:53:46.213Z,102720.84
2019-02-25T15:56:14.521Z,102713.50
2019-02-25T15:58:44.305Z,102714.42
2019-02-25T16:01:13.893Z,102710.27
2019-02-25T16:03:43.346Z,102697.52
2019-02-25T16:06:13.189Z,102708.28
2019-02-25T16:08:42.625Z,102701.87
2019-02-25T16:11:13.961Z,102703.23
2019-02-25T16:13:43.685Z,102689.31
2019-02-25T16:16:13.480Z,102697.13
2019-02-25T16:18:42.938Z,102704.49
2019-02-25T16:21:13.262Z,102697.49
2019-02-25T16:23:44.836Z,102689.40
2019-02-25T16:26:16.061Z,102693.10
2019-02-25T16:28:46.761Z,102703.33
2019-02-25T16:31:16.234Z,102705.13
2019-02-25T16:33:47.064Z,102707.16
2019-02-25T16:36:17.314Z,102710.23
2019-02-25T16:38:46.797Z,102707.56
2019-02-25T16:41:16.539Z,102703.30
2019-02-25T16:43:46.258Z,102705.50
2019-02-25T16:46:17.891Z,102690.30
2019-02-25T16:48:48.492Z,102691.43
2019-02-25T16:51:18.806Z,102707.64
2019-02-25T16:53:51.822Z,102706.55
2019-02-25T16:56:19.764Z,102716.37
2019-02-25T16:58:50.047Z,102715.00
2019-02-25T17:01:20.890Z,102708.81
2019-02-25T17:03:50.412Z,102723.92
2019-02-25T17:06:20.435Z,102722.61
2019-02-25T17:08:51.037Z,102728.06
2019-02-25T17:11:21.935Z,102735.20
2019-02-25T17:13:53.022Z,102725.99
2019-02-25T17:16:24.135Z,102717.33
2019-02-25T17:18:53.949Z,102728.55
2019-02-25T17:21:23.594Z,102729.05
2019-02-25T17:23:54.101Z,102744.64
2019-02-25T17:26:24.472Z,102746.64
2019-02-25T17:28:54.140Z,102750.94
2019-02-25T17:31:23.738Z,102750.84
2019-02-25T17:33:53.967Z,102744.56
2019-02-25T17:36:24.751Z,102745.23
2019-02-25T17:38:55.026Z,102753.77
2019-02-25T17:41:24.741Z,102750.87
2019-02-25T17:43:54.894Z,102737.12
2019-02-25T17:46:28.874Z,102725.55
2019-02-25T17:48:59.580Z,102727.20
2019-02-25T17:51:29.345Z,102724.94
2019-02-25T17:53:59.099Z,102728.59
2019-02-25T17:56:29.000Z,102730.45
2019-02-25T17:59:01.100Z,102730.05
2019-02-25T18:01:31.342Z,102719.59
2019-02-25T18:04:02.529Z,102720.84
2019-02-25T18:06:33.999Z,102728.66
2019-02-25T18:09:05.549Z,102721.99
2019-02-25T18:11:36.858Z,102721.99
2019-02-25T18:14:06.479Z,102713.69
2019-02-25T18:16:37.126Z,102713.59
2019-02-25T18:19:09.192Z,102715.06
2019-02-25T18:21:39.012Z,102709.28
2019-02-25T18:24:10.036Z,102713.27
2019-02-25T18:26:39.605Z,102724.19
2019-02-25T18:29:09.427Z,102714.85
2019-02-25T18:31:40.529Z,102715.81
2019-02-25T18:34:11.283Z,102706.80
2019-02-25T18:36:41.730Z,102704.06
2019-02-25T18:39:13.362Z,102711.69
2019-02-25T18:41:42.980Z,102709.30
2019-02-25T18:44:13.528Z,102709.08
2019-02-25T18:46:45.983Z,102710.64
2019-02-25T18:49:15.551Z,102705.06
2019-02-25T18:51:47.050Z,102700.74
2019-02-25T18:54:18.632Z,102698.32
2019-02-25T18:56:48.205Z,102700.41
2019-02-25T18:59:18.554Z,102705.06
2019-02-25T19:01:49.738Z,102716.30
2019-02-25T19:04:21.769Z,102716.42
2019-02-25T19:06:51.615Z,102713.81
2019-02-25T19:09:23.218Z,102715.20
2019-02-25T19:11:54.031Z,102712.16
2019-02-25T19:14:26.353Z,102715.03
2019-02-25T19:16:57.680Z,102717.92
2019-02-25T19:19:26.741Z,102721.66
2019-02-25T19:21:57.262Z,102711.90
2019-02-25T19:24:26.229Z,102710.12
2019-02-25T19:26:55.026Z,102709.39
2019-02-25T19:29:26.056Z,102709.09
2019-02-25T19:31:58.840Z,102710.80
2019-02-25T19:34:27.737Z,102722.71
2019-02-25T19:37:00.294Z,102715.05
2019-02-25T19:39:28.756Z,102706.02
2019-02-25T19:42:00.498Z,102703.17
2019-02-25T19:44:31.871Z,102708.76
2019-02-25T19:47:01.717Z,102715.72
2019-02-25T19:49:31.181Z,102716.45
2019-02-25T19:52:00.819Z,102707.55
2019-02-25T19:54:34.163Z,102718.19
2019-02-25T19:57:01.743Z,102714.78
2019-02-25T19:59:31.576Z,102722.03
2019-02-25T20:02:01.309Z,102709.23
2019-02-25T20:04:33.434Z,102702.14
2019-02-25T20:07:02.147Z,102686.31
2019-02-25T20:09:31.745Z,102675.45
2019-02-25T20:12:01.971Z,102668.93
2019-02-25T20:14:31.885Z,102661.05
2019-02-25T20:17:02.741Z,102653.45
2019-02-25T20:19:32.481Z,102647.09
2019-02-25T20:22:02.149Z,102642.41
2019-02-25T20:24:33.190Z,102647.91
2019-02-25T20:27:04.685Z,102658.06
2019-02-25T20:29:35.947Z,102653.89
2019-02-25T20:32:05.940Z,102653.38
2019-02-25T20:34:35.495Z,102647.16
2019-02-25T20:37:05.206Z,102635.70
2019-02-25T20:39:35.936Z,102649.23
2019-02-25T20:42:05.886Z,102662.52
2019-02-25T20:44:35.478Z,102648.67
2019-02-25T20:47:05.149Z,102638.04
2019-02-25T20:49:34.599Z,102640.88
2019-02-25T20:52:04.035Z,102640.41
2019-02-25T20:54:37.872Z,102641.28
2019-02-25T20:57:04.941Z,102642.72
2019-02-25T20:59:35.027Z,102634.06
2019-02-25T21:02:09.716Z,102634.59
2019-02-25T21:04:36.760Z,102631.66
2019-02-25T21:07:08.863Z,102640.23
2019-02-25T21:09:40.401Z,102637.45
2019-02-25T21:12:13.197Z,102633.74
2019-02-25T21:14:44.864Z,102638.94
2019-02-25T21:17:17.578Z,102627.93
2019-02-25T21:19:47.207Z,102621.16
2019-02-25T21:22:16.615Z,102630.61
2019-02-25T21:24:46.301Z,102623.37
2019-02-25T21:27:15.845Z,102621.42
2019-02-25T21:29:45.280Z,102613.20
2019-02-25T21:32:17.209Z,102615.16
2019-02-25T21:34:50.892Z,102614.99
2019-02-25T21:37:18.760Z,102618.70
2019-02-25T21:39:48.438Z,102624.64
2019-02-25T21:42:20.236Z,102619.67
2019-02-25T21:44:50.735Z,102607.53
2019-02-25T21:47:23.921Z,102594.52
2019-02-25T21:49:52.453Z,102583.73
2019-02-25T21:52:23.355Z,102587.49
2019-02-25T21:54:52.793Z,102583.02
2019-02-25T21:57:22.233Z,102589.52
2019-02-25T21:59:51.904Z,102573.73
2019-02-25T22:02:22.344Z,102569.48
2019-02-25T22:04:51.887Z,102558.21
2019-02-25T22:07:24.981Z,102551.39
2019-02-25T22:09:52.238Z,102550.64
2019-02-25T22:12:21.653Z,102554.64
2019-02-25T22:14:52.186Z,102567.15
2019-02-25T22:17:22.994Z,102570.47
2019-02-25T22:19:51.574Z,102570.58
2019-02-25T22:22:24.157Z,102578.53
2019-02-25T22:24:50.959Z,102568.87
2019-02-25T22:27:21.181Z,102566.59
2019-02-25T22:29:50.161Z,102574.22
2019-02-25T22:32:18.999Z,102569.52
2019-02-25T22:34:47.947Z,102565.61
2019-02-25T22:37:19.277Z,102563.78
2019-02-25T22:39:48.280Z,102564.11
2019-02-25T22:42:17.705Z,102555.19
2019-02-25T22:44:47.928Z,102553.23
2019-02-25T22:47:18.414Z,102546.16
2019-02-25T22:49:47.353Z,102549.16
2019-02-25T22:52:16.197Z,102546.50
2019-02-25T22:54:45.812Z,102540.08
2019-02-25T22:57:16.751Z,102540.64
2019-02-25T22:59:45.886Z,102544.48
2019-02-25T23:02:15.069Z,102543.97
2019-02-25T23:04:45.171Z,102551.12
2019-02-25T23:07:15.239Z,102544.30
2019-02-25T23:09:45.362Z,102548.05
2019-02-25T23:12:15.823Z,102537.55
2019-02-25T23:14:45.720Z,102544.48
2019-02-25T23:17:15.727Z,102544.30
2019-02-25T23:19:45.345Z,102543.66
2019-02-25T23:22:14.358Z,102534.73
2019-02-25T23:24:43.863Z,102528.05
2019-02-25T23:27:12.726Z,102517.50
2019-02-25T23:29:41.765Z,102519.20
2019-02-25T23:32:10.701Z,102515.69
2019-02-25T23:34:42.625Z,102517.64
2019-02-25T23:37:12.999Z,102518.05
2019-02-25T23:39:41.146Z,102514.90
2019-02-25T23:42:11.456Z,102515.69
2019-02-25T23:44:41.269Z,102516.98
2019-02-25T23:47:10.916Z,102514.64
2019-02-25T23:49:41.458Z,102496.49
2019-02-25T23:52:10.173Z,102488.19
2019-02-25T23:54:38.975Z,102492.27
2019-02-25T23:57:07.758Z,102486.73
2019-02-25T23:59:40.477Z,102492.06
